Penn Valley, Pennsylvania
Current Conditions -  °F | °C
As of 10:55 PM on Saturday 22 Nov 2014 (Local Time) from KLOM Reporting Station
Broken Clouds Broken Clouds  
Wind Chill: 43°   Ceiling: 12000
Heat Index: 43°   Visibility: 10mi
Dew Point: 23°   Wind: 3mph
Humidity: 46%   Direction: 210°SSW
Pressure: 30.23"   Gusts: NA
Location:  40.0237°N, 75.2579°W
Report Text: KLOM 230355Z AUTO 21003KT 10SM SCT080 BKN120 06/M05 A3023 RMK AO1
Loading
Personal Weather Stations






























Interactive Weather Map New forecast layout! Learn more

10-Day Weather Forecast

Advertisements
Track Severe Weather on mobile